Flight Track Log - Related Links

Times and Time Zones

All times are in EDT time to prevent confusion due to time zone crossing. See the VH-VGR flight status page for this flight to view local times or setup timezone preferences in your user account.

Time Position Orientation Groundspeed Altitude Reporting Facility
EDT Latitude Longitude Course Direction KTS MPH feet Rate Location/Type
Fri 03:06:37 AM -37.6582 144.7850 274° West 165 190 2,100  Level Aus ATC (RADAR)
Fri 03:07:07 AM -37.6562 144.7480 321° Northwest 212 244 2,600 2,492 Climbing Aus ATC (RADAR)
Fri 03:08:47 AM -37.5699 144.6603 27° Northeast 280 322 7,500 2,816 Climbing Aus ATC (RADAR)
Fri 03:10:06 AM -37.4774 144.7200 47° Northeast 326 375 11,000 2,478 Climbing Aus ATC (RADAR)
Fri 03:11:51 AM -37.3564 144.8805 46° Northeast 373 429 15,100 2,215 Climbing Aus ATC (RADAR)
Fri 03:13:21 AM -37.2451 145.0267 46° Northeast 396 456 18,200 2,025 Climbing Aus ATC (RADAR)
Fri 03:14:31 AM -37.1559 145.1433 44° Northeast 409 471 20,500 1,800 Climbing Aus ATC (RADAR)
Fri 03:16:01 AM -37.0308 145.2942 39° Northeast 424 488 23,000 1,518 Climbing Aus ATC (RADAR)
Fri 03:17:21 AM -36.9064 145.4223 39° Northeast 443 510 24,800 1,364 Climbing Aus ATC (RADAR)
Fri 03:17:51 AM -36.8583 145.4715 39° Northeast 450 518 25,500 1,280 Climbing Aus ATC (RADAR)
Fri 03:19:51 AM -36.6612 145.6731 39° Northeast 465 535 28,000 1,172 Climbing Aus ATC (RADAR)
Fri 03:21:26 AM -36.5001 145.8376 39° Northeast 480 552 29,700 1,232 Climbing Aus ATC (RADAR)
Fri 03:22:56 AM -36.3454 145.9945 39° Northeast 476 548 31,800 1,460 Climbing Aus ATC (RADAR)
Fri 03:24:35 AM -36.1781 146.1640 39° Northeast 461 531 34,300 1,172 Climbing Aus ATC (RADAR)
Fri 03:25:50 AM -36.0551 146.2883 39° Northeast 462 532 35,200 327 Climbing Aus ATC (RADAR)
Fri 03:27:20 AM -35.9059 146.4363 39° Northeast 459 528 35,200  Level Aus ATC (RADAR)
Fri 03:28:50 AM -35.7567 146.5844 39° Northeast 463 533 35,200  Level Aus ATC (RADAR)
Fri 03:29:20 AM -35.7065 146.6344 39° Northeast 463 533 35,200  Level Aus ATC (RADAR)
Fri 03:31:10 AM -35.5207 146.8164 39° Northeast 467 537 35,200  Level Aus ATC (RADAR)
Fri 03:32:30 AM -35.3870 146.9479 38° Northeast 458 527 35,200  Level Aus ATC (RADAR)
Fri 03:33:10 AM -35.3204 147.0128 39° Northeast 458 527 35,200  Level Aus ATC (RADAR)
Fri 03:34:40 AM -35.1716 147.1582 38° Northeast 454 522 35,200  Level Aus ATC (RADAR)
Fri 03:36:20 AM -35.0070 147.3170 38° Northeast 452 520 35,200 63 Level Aus ATC (RADAR)
Fri 03:37:49 AM -34.8592 147.4596 38° Northeast 454 522 35,400 303 Climbing Aus ATC (RADAR)
Fri 03:38:19 AM -34.8091 147.5076 38° Northeast 458 527 35,800 750 Climbing Aus ATC (RADAR)
Fri 03:39:09 AM -34.7267 147.5869 38° Northeast 453 521 36,400 706 Climbing Aus ATC (RADAR)
Fri 03:39:44 AM -34.6687 147.6428 38° Northeast 455 524 36,800 457 Climbing Aus ATC (RADAR)
Fri 03:40:54 AM -34.5519 147.7537 38° Northeast 456 525 37,200 166 Climbing Aus ATC (RADAR)
Fri 03:42:09 AM -34.4269 147.8724 38° Northeast 460 529 37,200  Level Aus ATC (RADAR)
Fri 03:43:09 AM -34.3259 147.9679 38° Northeast 459 528 37,200  Level Aus ATC (RADAR)
Fri 03:43:54 AM -34.2499 148.0396 38° Northeast 460 529 37,200  Level Aus ATC (RADAR)
Fri 03:44:29 AM -34.1908 148.0957 38° Northeast 459 528 37,200  Level Aus ATC (RADAR)
Fri 03:45:24 AM -34.0975 148.1832 38° Northeast 461 531 37,200  Level Aus ATC (RADAR)
Fri 03:46:04 AM -34.0296 148.2469 38° Northeast 462 532 37,200  Level Aus ATC (RADAR)
Fri 03:46:54 AM -33.9446 148.3264 38° Northeast 465 535 37,200 56 Level Aus ATC (RADAR)
Fri 03:47:51 AM -33.8466 148.4173 38° Northeast 466 536 37,300  Climbing Aus ATC (RADAR)
Fri 03:49:00 AM -33.7286 148.5268 38° Northeast 461 531 37,200 -56 Descending Aus ATC (RADAR)
Fri 03:49:39 AM -33.6672 148.5844 37° Northeast 450 518 37,200  Level Aus ATC (RADAR)
Fri 03:50:30 AM -33.5800 148.6647 38° Northeast 451 519 37,200  Level Aus ATC (RADAR)
Fri 03:51:25 AM -33.4896 148.7483 38° Northeast 451 519 37,200  Level Aus ATC (RADAR)
Fri 03:52:30 AM -33.3841 148.8457 37° Northeast 444 511 37,200  Level Aus ATC (RADAR)
Fri 03:53:04 AM -33.3307 148.8945 38° Northeast 442 509 37,200  Level Aus ATC (RADAR)
Fri 03:53:50 AM -33.2525 148.9666 37° Northeast 454 522 37,200 74 Level Aus ATC (RADAR)
Fri 03:54:25 AM -33.1942 149.0199 37° Northeast 455 524 37,300  Climbing Aus ATC (RADAR)
Fri 03:55:18 AM -33.1063 149.1001 38° Northeast 448 516 37,200  Descending Aus ATC (RADAR)
Fri 03:55:55 AM -33.0440 149.1573 37° Northeast 453 521 37,300  Climbing Aus ATC (RADAR)
Fri 03:57:20 AM -32.9030 149.2852 37° Northeast 451 519 37,200 -45 Descending Aus ATC (RADAR)
Fri 03:58:08 AM -32.8241 149.3561 37° Northeast 446 513 37,200  Level Aus ATC (RADAR)
Fri 03:58:58 AM -32.7410 149.4312 37° Northeast 446 513 37,200  Level Aus ATC (RADAR)
Fri 03:59:33 AM -32.6822 149.4841 37° Northeast 449 517 37,200 69 Level Aus ATC (RADAR)
Fri 04:00:25 AM -32.5946 149.5627 36° Northeast 452 520 37,300  Climbing Aus ATC (RADAR)
Fri 04:02:00 AM -32.4472 149.6889 35° Northeast 441 507 37,200 -39 Descending Aus ATC (RADAR)
Fri 04:02:59 AM -32.3630 149.7593 35° Northeast 441 507 37,200  Level Aus ATC (RADAR)
Fri 04:03:40 AM -32.2660 149.8407 35° Northeast 446 513 37,200  Level Aus ATC (RADAR)
Fri 04:04:14 AM -32.2070 149.8902 35° Northeast 448 516 37,200  Level Aus ATC (RADAR)
Fri 04:05:09 AM -32.1141 149.9673 35° Northeast 446 513 37,200 54 Level Aus ATC (RADAR)
Fri 04:06:05 AM -32.0264 150.0406 35° Northeast 439 505 37,300  Climbing Aus ATC (RADAR)
Fri 04:06:54 AM -31.9387 150.1139 35° Northeast 440 506 37,200 -76 Descending Aus ATC (RADAR)
Fri 04:07:24 AM -31.8887 150.1545 36° Northeast 437 503 37,200  Level Aus ATC (RADAR)
Fri 04:07:59 AM -31.8308 150.2032 35° Northeast 440 506 37,200  Level Aus ATC (RADAR)
Fri 04:08:39 AM -31.7644 150.2581 44° Northeast 441 507 37,200  Level Aus ATC (RADAR)
Fri 04:09:14 AM -31.7119 150.3185 44° Northeast 456 525 37,200  Level Aus ATC (RADAR)
Fri 04:09:59 AM -31.6439 150.3958 44° Northeast 456 525 37,200 80 Level Aus ATC (RADAR)
Fri 04:10:29 AM -31.5985 150.4475 44° Northeast 457 526 37,300 92 Climbing Aus ATC (RADAR)
Fri 04:11:04 AM -31.5457 150.5076 44° Northeast 457 526 37,300 -55 Level Aus ATC (RADAR)
Fri 04:12:19 AM -31.4329 150.6358 44° Northeast 453 521 37,200  Descending Aus ATC (RADAR)
Fri 04:13:09 AM -31.3575 150.7209 44° Northeast 454 522 37,300  Climbing Aus ATC (RADAR)
Fri 04:13:46 AM -31.3051 150.7799 44° Northeast 451 519 37,200 -85 Descending Aus ATC (RADAR)
Fri 04:14:20 AM -31.2603 150.8310 44° Northeast 452 520 37,200 87 Level Aus ATC (RADAR)
Fri 04:14:55 AM -31.2006 150.8979 43° Northeast 447 514 37,300 79 Climbing Aus ATC (RADAR)
Fri 04:15:36 AM -31.1673 150.9347 44° Northeast 434 499 37,300 -76 Level Aus ATC (RADAR)
Fri 04:16:14 AM -31.0838 151.0293 44° Northeast 436 502 37,200 -58 Descending Aus ATC (RADAR)
Fri 04:17:20 AM -31.0218 151.0985 44° Northeast 428 493 37,200  Level Aus ATC (RADAR)
Fri 04:18:11 AM -30.9410 151.1884 44° Northeast 430 495 37,200  Level Aus ATC (RADAR)
Fri 04:19:01 AM -30.8528 151.2871 44° Northeast 432 497 37,200  Level Aus ATC (RADAR)
Fri 04:20:22 AM -30.7232 151.4315 43° Northeast 444 511 37,200  Level Aus ATC (RADAR)
Fri 04:21:23 AM -30.6264 151.5381 43° Northeast 442 509 37,200  Level Aus ATC (RADAR)
Fri 04:22:14 AM -30.5557 151.6160 43° Northeast 432 497 37,200  Level Aus ATC (RADAR)
Fri 04:23:08 AM -30.4700 151.7103 43° Northeast 445 512 37,200  Level Aus ATC (RADAR)
Fri 04:23:53 AM -30.4068 151.7794 43° Northeast 433 498 37,200  Level Aus ATC (RADAR)
Fri 04:24:29 AM -30.3544 151.8369 43° Northeast 436 502 37,200  Level Aus ATC (RADAR)
Fri 04:25:19 AM -30.2794 151.9191 44° Northeast 436 502 37,200  Level Aus ATC (RADAR)
Fri 04:26:19 AM -30.1854 152.0224 43° Northeast 449 517 37,200  Level Aus ATC (RADAR)
Fri 04:27:19 AM -30.0974 152.1177 43° Northeast 441 507 37,200  Level Aus ATC (RADAR)
Fri 04:28:27 AM -29.9905 152.2346 44° Northeast 443 510 37,200  Level Aus ATC (RADAR)
Fri 04:29:27 AM -29.8953 152.3392 43° Northeast 459 528 37,200  Level Aus ATC (RADAR)
Fri 04:30:07 AM -29.8365 152.4013 44° Northeast 446 513 37,200 -80 Level Aus ATC (RADAR)
Fri 04:30:42 AM -29.7786 152.4653 43° Northeast 466 536 37,100 -1,200 Descending Aus ATC (RADAR)
Fri 04:31:32 AM -29.7007 152.5496 43° Northeast 461 531 35,500 -2,087 Descending Aus ATC (RADAR)
Fri 04:32:37 AM -29.5985 152.6600 43° Northeast 470 541 33,100 -2,182 Descending Aus ATC (RADAR)
Fri 04:33:22 AM -29.5278 152.7359 42° Northeast 463 533 31,500 -2,240 Descending Aus ATC (RADAR)
Fri 04:33:52 AM -29.4845 152.7802 44° Northeast 439 505 30,300 -2,100 Descending Aus ATC (RADAR)
Fri 04:34:42 AM -29.4049 152.8680 43° Northeast 448 516 28,700 -1,909 Descending Aus ATC (RADAR)
Fri 04:35:42 AM -29.3162 152.9617 43° Northeast 427 491 26,800 -1,829 Descending Aus ATC (RADAR)
Fri 04:36:27 AM -29.2513 153.0305 43° Northeast 422 486 25,500 -1,840 Descending Aus ATC (RADAR)
Fri 04:36:57 AM -29.2093 153.0750 42° Northeast 410 472 24,500 -1,768 Descending Aus ATC (RADAR)
Fri 04:38:02 AM -29.1232 153.1636 43° Northeast 382 440 22,700 -1,650 Descending Aus ATC (RADAR)
Fri 04:38:57 AM -29.0504 153.2409 43° Northeast 370 426 21,200 -1,740 Descending Aus ATC (RADAR)
Fri 04:39:42 AM -28.9888 153.3076 43° Northeast 384 442 19,800 -1,786 Descending Aus ATC (RADAR)
Fri 04:40:21 AM -28.9357 153.3632 43° Northeast 390 449 18,700 -1,723 Descending Aus ATC (RADAR)
Fri 04:41:16 AM -28.8622 153.4406 37° Northeast 395 455 17,100 -1,688 Descending Aus ATC (RADAR)
Fri 04:41:57 AM -28.8102 153.4848 18° North 361 415 16,000 -1,550 Descending Aus ATC (RADAR)
Fri 04:43:16 AM -28.6841 153.5321 21° North 339 390 14,000 -1,478 Descending Aus ATC (RADAR)
Fri 04:44:11 AM -28.6048 153.5674 21° North 323 372 12,700 -1,453 Descending Aus ATC (RADAR)
Fri 04:44:51 AM -28.5472 153.5931 13° North 325 374 11,700 -1,553 Descending Aus ATC (RADAR)
Fri 04:45:36 AM -28.4784 153.6116 North 318 366 10,500 -1,324 Descending Aus ATC (RADAR)
Fri 04:47:07 AM -28.3564 153.6306 North 286 329 8,700 -1,328 Descending Aus ATC (RADAR)
Fri 04:47:47 AM -28.3027 153.6389 North 289 333 7,600 -1,135 Descending Aus ATC (RADAR)
Fri 04:48:21 AM -28.2575 153.6457 350° North 278 320 7,300 -1,071 Descending Aus ATC (RADAR)
Fri 04:49:11 AM -28.1940 153.6326 347° North 280 322 6,100 -1,309 Descending Aus ATC (RADAR)
Fri 04:50:11 AM -28.1192 153.6131 348° North 269 310 4,900 -887 Descending Aus ATC (RADAR)
Fri 04:51:06 AM -28.0573 153.5978 321° Northwest 238 274 4,400 -726 Descending Aus ATC (RADAR)
Fri 04:52:15 AM -28.0069 153.5509 272° West 217 250 3,400 -708 Descending Aus ATC (RADAR)
Fri 04:53:30 AM -28.0046 153.4720 200° South 185 213 2,700 -576 Descending Aus ATC (RADAR)
Fri 04:54:20 AM -28.0389 153.4575 164° South 160 184 2,200 -442 Descending Aus ATC (RADAR)
Fri 04:55:05 AM -28.0697 153.4674 162° South 151 174 2,000 -568 Descending Aus ATC (RADAR)
Fri 04:55:55 AM -28.0994 153.4782 174° South 129 148 1,300 -821 Descending Aus ATC (RADAR)
Fri 04:56:40 AM -28.1264 153.4812 150° Southeast 129 148 700 -720 Descending Aus ATC (RADAR)
Fri 04:57:10 AM -28.1421 153.4913 150° Southeast 126 145 400 -600 Descending Aus ATC (RADAR)

Login

Don't have an account? Register now (free) for customized features, flight alerts, and more!